»·PEaware :: N760XJ KMCC-KOAK

N760XJ :: KMCC-KOAK

FLIGHT INFORMATION

Flight Status: Arrived
Operator: Privately registered:
United States
More flights under this callsign
Pilot: Mark D. (12)
Aircraft: CESSNA 750 CITATION 10
(C750)
More flights by this aircraft type
Origin: KMCC McClellan
United States
Destination: KOAK Metro Oakland Intl
United States
More flights between these airports :: More routes between these airports
Route: KMCC SAC ECA MADN5 KOAK
File this flight plan on PilotEdge
Remarks: XOJET Ops / V /
Altitude:
(Current/Filed)
12,000ft
Speed:
(Current/Filed)
450kts
Departed: 19-Aug-12 07:55 PM
Arrived: 19-Aug-12 08:19 PM
Distance/Time
Traveled:
68nm/0:24
Distance/Time
To Go:
Arrived

Flight Plot

Page will automatically refresh every two minutes.


Map Options




Map Legend


Flown Route
Filed Route
Departure Airport
Arrival Airport
Navaid (VOR, NDB)
Fix

Horizontal Profiles

Position Reports

Time Latitude Longitude Heading Altitude Ground
Speed
19-Aug-12 19:17 38.668955 -121.396970 178 79ft 0kts
19-Aug-12 19:18 38.668955 -121.396970 178 79ft 0kts
19-Aug-12 19:19 38.668955 -121.396970 178 79ft 0kts
19-Aug-12 19:20 38.668955 -121.396970 178 79ft 0kts
19-Aug-12 19:21 38.668955 -121.396970 178 79ft 0kts
19-Aug-12 19:22 38.668955 -121.396970 178 79ft 0kts
19-Aug-12 19:23 38.668955 -121.396970 178 79ft 0kts
19-Aug-12 19:24 38.668955 -121.396970 178 79ft 0kts
19-Aug-12 19:25 38.668955 -121.396970 178 79ft 0kts
19-Aug-12 19:26 38.668955 -121.396970 178 79ft 0kts
19-Aug-12 19:27 38.668955 -121.396970 178 79ft 0kts
19-Aug-12 19:28 38.668955 -121.396970 178 79ft 0kts
19-Aug-12 19:29 38.668955 -121.396970 178 79ft 0kts
19-Aug-12 19:30 38.668955 -121.396970 178 79ft 0kts
19-Aug-12 19:31 38.668955 -121.396970 178 79ft 0kts
19-Aug-12 19:32 38.668955 -121.396970 178 79ft 0kts
19-Aug-12 19:33 38.668955 -121.396970 178 79ft 0kts
19-Aug-12 19:34 38.668955 -121.396970 178 79ft 0kts
19-Aug-12 19:35 38.668955 -121.396970 178 79ft 0kts
19-Aug-12 19:36 38.668955 -121.396970 178 79ft 0kts
19-Aug-12 19:37 38.668955 -121.396970 178 79ft 0kts
19-Aug-12 19:38 38.668955 -121.396970 178 79ft 0kts
19-Aug-12 19:39 38.668955 -121.396970 178 79ft 0kts
19-Aug-12 19:40 38.668955 -121.396970 178 79ft 0kts
19-Aug-12 19:41 38.668955 -121.396970 178 79ft 0kts
19-Aug-12 19:42 38.668955 -121.396970 178 79ft 0kts
19-Aug-12 19:43 38.668955 -121.396970 178 79ft 0kts
19-Aug-12 19:44 38.668955 -121.396970 178 79ft 0kts
19-Aug-12 19:45 38.668955 -121.396970 178 79ft 0kts
19-Aug-12 19:46 38.668951 -121.396970 178 79ft 0kts
19-Aug-12 19:47 38.668942 -121.396970 178 79ft 0kts
19-Aug-12 19:48 38.668939 -121.396970 178 79ft 0kts
19-Aug-12 19:49 38.670152 -121.398866 358 79ft 14kts
19-Aug-12 19:50 38.675400 -121.398799 0 79ft 27kts
19-Aug-12 19:51 38.681861 -121.399239 273 79ft 7kts
19-Aug-12 19:52 38.681858 -121.399300 263 79ft 0kts
19-Aug-12 19:53 38.681805 -121.399885 262 79ft 12kts
19-Aug-12 19:54 38.649671 -121.401298 182 1109ft 210kts
19-Aug-12 19:55 38.591207 -121.399484 180 4943ft 216kts
19-Aug-12 19:56 38.526142 -121.387189 161 9338ft 257kts
19-Aug-12 19:57 38.448679 -121.360763 166 11975ft 345kts
19-Aug-12 19:58 38.346631 -121.329359 166 11979ft 384kts
19-Aug-12 19:59 38.241645 -121.296789 166 12009ft 390kts
19-Aug-12 20:00 38.136097 -121.264247 166 12011ft 383kts
19-Aug-12 20:01 38.034163 -121.232951 166 12020ft 370kts
19-Aug-12 20:02 37.934597 -121.202345 166 11997ft 365kts
19-Aug-12 20:03 37.836983 -121.201339 207 12005ft 359kts
19-Aug-12 20:04 37.782248 -121.303347 250 11998ft 362kts
19-Aug-12 20:05 37.748130 -121.414995 243 11477ft 335kts
19-Aug-12 20:06 37.711331 -121.515011 246 9670ft 296kts
19-Aug-12 20:07 37.678910 -121.606156 244 8086ft 269kts
19-Aug-12 20:08 37.648058 -121.690959 245 8057ft 264kts
19-Aug-12 20:09 37.618007 -121.774478 247 6898ft 264kts
19-Aug-12 20:10 37.608732 -121.858021 287 4499ft 229kts
19-Aug-12 20:11 37.632818 -121.921079 294 4195ft 167kts
19-Aug-12 20:12 37.650888 -121.974939 290 3901ft 164kts
19-Aug-12 20:13 37.666952 -122.026411 290 3013ft 153kts
19-Aug-12 20:14 37.682957 -122.075748 292 2099ft 149kts
19-Aug-12 20:15 37.698783 -122.123913 291 1334ft 148kts
19-Aug-12 20:16 37.714014 -122.171586 293 589ft 140kts
19-Aug-12 20:17 37.726752 -122.210858 291 10ft 60kts
19-Aug-12 20:18 37.728818 -122.211576 108 10ft 21kts
19-Aug-12 20:19 37.729463 -122.211005 296 10ft 0kts
19-Aug-12 20:20 37.729464 -122.211009 296 10ft 0kts
19-Aug-12 20:21 37.729466 -122.211013 296 10ft 0kts
19-Aug-12 20:22 37.729467 -122.211016 296 10ft 0kts
19-Aug-12 20:23 37.729468 -122.211020 296 10ft 0kts

Navigation Log

Ident Type
Flight plan parsing failed, navigation log unavailable